createdAt,value
2023-02-23T00:00:36.440Z,6.87
2023-02-23T00:03:04.543Z,7.47
2023-02-23T00:05:36.818Z,6.80
2023-02-23T00:08:05.444Z,7.20
2023-02-23T00:10:33.692Z,7.80
2023-02-23T00:13:01.943Z,5.87
2023-02-23T00:15:31.549Z,6.87
2023-02-23T00:17:59.737Z,6.40
2023-02-23T00:20:28.196Z,7.53
2023-02-23T00:22:56.993Z,6.67
2023-02-23T00:25:25.385Z,6.50
2023-02-23T00:27:54.896Z,6.10
2023-02-23T00:30:23.311Z,6.37
2023-02-23T00:32:53.583Z,7.43
2023-02-23T00:35:21.515Z,6.73
2023-02-23T00:37:50.270Z,6.37
2023-02-23T00:40:21.306Z,6.60
2023-02-23T00:42:50.151Z,6.37
2023-02-23T00:45:18.957Z,6.47
2023-02-23T00:47:48.530Z,7.73
2023-02-23T00:50:18.886Z,7.70
2023-02-23T00:52:46.810Z,6.40
2023-02-23T00:55:16.045Z,7.23
2023-02-23T00:57:43.965Z,6.47
2023-02-23T01:00:20.535Z,6.77
2023-02-23T01:02:49.522Z,6.13
2023-02-23T01:05:18.788Z,5.87
2023-02-23T01:07:47.527Z,6.40
2023-02-23T01:10:21.138Z,6.50
2023-02-23T01:12:50.248Z,6.33
2023-02-23T01:15:19.118Z,6.50
2023-02-23T01:17:47.654Z,5.57
2023-02-23T01:20:19.358Z,5.90
2023-02-23T01:22:49.043Z,6.23
2023-02-23T01:25:17.622Z,6.57
2023-02-23T01:27:46.322Z,6.60
2023-02-23T01:30:15.896Z,7.10
2023-02-23T01:32:43.856Z,7.83
2023-02-23T01:35:13.643Z,6.63
2023-02-23T01:37:44.208Z,6.93
2023-02-23T01:40:15.709Z,7.67
2023-02-23T01:42:45.303Z,8.23
2023-02-23T01:45:32.245Z,8.93
2023-02-23T01:48:03.431Z,8.00
2023-02-23T01:50:37.459Z,6.20
2023-02-23T01:53:06.913Z,6.90
2023-02-23T01:55:35.040Z,8.17
2023-02-23T01:58:08.691Z,6.97
2023-02-23T02:00:37.747Z,7.30
2023-02-23T02:03:09.345Z,6.20
2023-02-23T02:05:38.954Z,6.53
2023-02-23T02:08:10.439Z,7.00
2023-02-23T02:10:47.122Z,7.70
2023-02-23T02:13:20.553Z,8.67
2023-02-23T02:16:18.894Z,6.40
2023-02-23T02:19:22.153Z,7.30
2023-02-23T02:22:08.797Z,5.80
2023-02-23T02:25:13.667Z,8.80
2023-02-23T02:28:08.712Z,7.87
2023-02-23T02:31:09.046Z,8.20
2023-02-23T02:34:01.353Z,7.60
2023-02-23T02:37:00.876Z,6.90
2023-02-23T02:39:36.604Z,7.67
2023-02-23T02:42:13.531Z,6.60
2023-02-23T02:44:49.854Z,7.37
2023-02-23T02:47:21.344Z,9.67
2023-02-23T02:49:53.120Z,7.70
2023-02-23T02:52:26.402Z,7.53
2023-02-23T02:54:56.528Z,7.13
2023-02-23T02:57:27.122Z,7.37
2023-02-23T03:00:12.335Z,6.87
2023-02-23T03:02:58.846Z,7.43
2023-02-23T03:05:47.255Z,8.80
2023-02-23T03:08:40.519Z,9.00
2023-02-23T03:11:26.889Z,8.90
2023-02-23T03:14:21.940Z,7.60
2023-02-23T03:17:14.835Z,8.93
2023-02-23T03:20:05.705Z,7.50
2023-02-23T03:22:53.663Z,9.27
2023-02-23T03:25:45.801Z,8.07
2023-02-23T03:28:33.576Z,8.37
2023-02-23T03:31:28.610Z,7.73
2023-02-23T03:34:17.752Z,7.10
2023-02-23T03:37:07.792Z,7.10
2023-02-23T03:39:56.300Z,7.23
2023-02-23T03:42:46.439Z,7.23
2023-02-23T03:45:35.434Z,8.70
2023-02-23T03:48:22.568Z,7.47
2023-02-23T03:51:10.993Z,7.43
2023-02-23T03:54:00.610Z,7.50
2023-02-23T03:56:46.578Z,6.63
2023-02-23T03:59:34.518Z,7.17
2023-02-23T04:02:19.989Z,7.87
2023-02-23T04:05:05.443Z,8.63
2023-02-23T04:07:53.259Z,9.17
2023-02-23T04:10:39.237Z,6.70
2023-02-23T04:13:15.610Z,9.93
2023-02-23T04:15:48.488Z,9.77
2023-02-23T04:18:18.412Z,9.60
2023-02-23T04:20:46.344Z,7.77
2023-02-23T04:23:14.241Z,9.50
2023-02-23T04:25:42.149Z,7.30
2023-02-23T04:28:10.068Z,7.03
2023-02-23T04:30:38.083Z,6.77
2023-02-23T04:33:07.384Z,7.97
2023-02-23T04:35:35.292Z,7.73
2023-02-23T04:38:03.430Z,7.40
2023-02-23T04:40:31.697Z,8.80
2023-02-23T04:42:59.620Z,11.07
2023-02-23T04:45:28.016Z,10.50
2023-02-23T04:47:56.292Z,11.43
2023-02-23T04:50:25.575Z,10.83
2023-02-23T04:52:53.840Z,11.77
2023-02-23T04:55:23.501Z,11.40
2023-02-23T04:57:51.979Z,9.63
2023-02-23T05:00:20.792Z,7.60
2023-02-23T05:02:50.614Z,11.40
2023-02-23T05:05:18.812Z,11.03
2023-02-23T05:07:48.276Z,7.97
2023-02-23T05:10:16.182Z,7.63
2023-02-23T05:12:44.116Z,8.33
2023-02-23T05:15:12.588Z,9.33
2023-02-23T05:17:42.375Z,11.67
2023-02-23T05:20:11.999Z,9.77
2023-02-23T05:22:40.007Z,8.07
2023-02-23T05:25:10.448Z,12.37
2023-02-23T05:27:38.460Z,11.30
2023-02-23T05:30:09.980Z,11.63
2023-02-23T05:32:37.982Z,10.93
2023-02-23T05:35:07.137Z,11.60
2023-02-23T05:37:35.050Z,10.47
2023-02-23T05:40:03.022Z,9.00
2023-02-23T05:42:32.292Z,8.33
2023-02-23T05:45:00.198Z,8.13
2023-02-23T05:47:28.099Z,9.10
2023-02-23T05:49:56.028Z,8.43
2023-02-23T05:52:24.676Z,10.17
2023-02-23T05:54:52.583Z,8.20
2023-02-23T05:57:20.532Z,9.13
2023-02-23T05:59:49.826Z,12.17
2023-02-23T06:02:17.734Z,12.77
2023-02-23T06:04:46.832Z,13.53
2023-02-23T06:07:14.786Z,12.17
2023-02-23T06:09:44.468Z,12.73
2023-02-23T06:12:12.630Z,9.73
2023-02-23T06:14:40.526Z,12.97
2023-02-23T06:17:09.912Z,10.40
2023-02-23T06:19:37.874Z,13.73
2023-02-23T06:22:05.767Z,11.07
2023-02-23T06:24:34.408Z,12.37
2023-02-23T06:27:02.700Z,10.07
2023-02-23T06:29:30.628Z,12.13
2023-02-23T06:32:00.832Z,11.57
2023-02-23T06:34:30.981Z,12.10
2023-02-23T06:36:58.947Z,13.00
2023-02-23T06:39:26.927Z,12.73
2023-02-23T06:41:54.873Z,13.13
2023-02-23T06:44:23.499Z,13.87
2023-02-23T06:46:51.447Z,12.83
2023-02-23T06:49:19.386Z,10.60
2023-02-23T06:51:48.719Z,12.40
2023-02-23T06:54:16.655Z,12.43
2023-02-23T06:56:44.684Z,14.47
2023-02-23T06:59:12.584Z,9.97
2023-02-23T07:01:40.514Z,14.37
2023-02-23T07:04:08.519Z,14.23
2023-02-23T07:06:36.483Z,12.93
2023-02-23T07:09:05.776Z,11.97
2023-02-23T07:11:33.917Z,12.20
2023-02-23T07:14:02.514Z,12.33
2023-02-23T07:16:30.755Z,12.93
2023-02-23T07:18:58.719Z,13.93
2023-02-23T07:21:26.600Z,13.60
2023-02-23T07:23:54.517Z,12.90
2023-02-23T07:26:23.856Z,11.73
2023-02-23T07:28:54.096Z,12.53
2023-02-23T07:31:22.341Z,12.80
2023-02-23T07:33:50.420Z,11.20
2023-02-23T07:36:18.382Z,10.43
2023-02-23T07:38:46.308Z,11.60
2023-02-23T07:41:14.461Z,14.67
2023-02-23T07:43:43.752Z,12.70
2023-02-23T07:46:11.749Z,16.97
2023-02-23T07:48:41.289Z,13.53
2023-02-23T07:51:11.820Z,14.07
2023-02-23T07:53:40.347Z,15.20
2023-02-23T07:56:10.910Z,14.40
2023-02-23T07:58:38.861Z,14.10
2023-02-23T08:01:09.118Z,15.77
2023-02-23T08:03:37.014Z,18.80
2023-02-23T08:06:05.331Z,19.20
2023-02-23T08:08:34.084Z,15.90
2023-02-23T08:11:02.516Z,15.23
2023-02-23T08:13:31.916Z,13.23
2023-02-23T08:15:59.975Z,17.53
2023-02-23T08:18:29.282Z,15.80
2023-02-23T08:20:59.678Z,15.47
2023-02-23T08:23:27.675Z,14.97
2023-02-23T08:25:55.709Z,14.73
2023-02-23T08:28:25.243Z,15.60
2023-02-23T08:30:53.781Z,17.07
2023-02-23T08:33:21.909Z,13.50
2023-02-23T08:35:53.724Z,20.50
2023-02-23T08:38:21.809Z,15.60
2023-02-23T08:40:49.793Z,18.77
2023-02-23T08:43:17.711Z,16.07
2023-02-23T08:45:45.617Z,16.37
2023-02-23T08:48:13.642Z,17.33
2023-02-23T08:50:41.656Z,17.27
2023-02-23T08:53:10.967Z,18.93
2023-02-23T08:55:39.743Z,26.67
2023-02-23T08:58:10.822Z,25.03
2023-02-23T09:01:14.341Z,35.67
2023-02-23T09:03:42.322Z,23.63
2023-02-23T09:06:13.430Z,24.07
2023-02-23T09:08:43.085Z,23.87
2023-02-23T09:11:11.070Z,26.57
2023-02-23T09:13:39.027Z,24.57
2023-02-23T09:16:10.054Z,27.97
2023-02-23T09:18:38.125Z,25.43
2023-02-23T09:21:08.522Z,28.33
2023-02-23T09:23:36.782Z,26.23
2023-02-23T09:26:09.992Z,19.77
2023-02-23T09:28:39.917Z,27.50
2023-02-23T09:31:09.067Z,25.37
2023-02-23T09:33:37.470Z,22.13
2023-02-23T09:36:07.652Z,29.77
2023-02-23T09:38:35.687Z,22.67
2023-02-23T09:41:03.703Z,23.70
2023-02-23T09:43:37.422Z,26.97
2023-02-23T09:46:13.455Z,23.60
2023-02-23T09:48:41.704Z,27.70
2023-02-23T09:51:10.287Z,25.03
2023-02-23T09:54:25.552Z,29.90
2023-02-23T09:56:56.338Z,25.47
2023-02-23T09:59:26.653Z,29.23
2023-02-23T10:02:01.370Z,28.03
2023-02-23T10:04:32.281Z,24.50
2023-02-23T10:07:04.545Z,27.00
2023-02-23T10:09:46.747Z,26.37
2023-02-23T10:12:21.336Z,21.93
2023-02-23T10:15:06.554Z,23.60
2023-02-23T10:17:41.372Z,26.13
2023-02-23T10:20:18.352Z,22.23
2023-02-23T10:22:47.704Z,20.00
2023-02-23T10:25:18.298Z,21.90
2023-02-23T10:27:48.201Z,21.87
2023-02-23T10:30:22.232Z,19.83
2023-02-23T10:32:55.351Z,20.37
2023-02-23T10:35:24.691Z,20.07
2023-02-23T10:37:54.168Z,20.87
2023-02-23T10:40:23.562Z,21.23
2023-02-23T10:42:52.920Z,20.47
2023-02-23T10:45:24.723Z,19.77
2023-02-23T10:47:56.607Z,20.17
2023-02-23T10:50:27.504Z,18.97
2023-02-23T10:53:17.304Z,18.97
2023-02-23T10:56:02.062Z,18.43
2023-02-23T10:58:30.011Z,19.40
2023-02-23T11:01:00.522Z,18.27
2023-02-23T11:03:31.584Z,20.63
2023-02-23T11:05:59.504Z,21.53
2023-02-23T11:08:30.526Z,18.47
2023-02-23T11:11:19.548Z,20.70
2023-02-23T11:13:48.928Z,21.43
2023-02-23T11:16:20.595Z,18.20
2023-02-23T11:18:55.375Z,18.90
2023-02-23T11:21:26.552Z,22.27
2023-02-23T11:23:56.481Z,18.27
2023-02-23T11:26:34.990Z,19.27
2023-02-23T11:29:13.416Z,18.30
2023-02-23T11:31:48.624Z,19.23
2023-02-23T11:34:24.154Z,18.20
2023-02-23T11:37:00.707Z,20.93
2023-02-23T11:39:28.719Z,18.43
2023-02-23T11:42:17.156Z,18.47
2023-02-23T11:44:48.815Z,17.97
2023-02-23T11:47:23.051Z,19.10
2023-02-23T11:49:51.614Z,24.23
2023-02-23T11:52:22.287Z,18.70
2023-02-23T11:54:56.676Z,19.63
2023-02-23T11:57:26.518Z,20.20
2023-02-23T11:59:54.871Z,20.07
2023-02-23T12:02:25.886Z,26.00
2023-02-23T12:05:03.448Z,19.97
2023-02-23T12:07:38.986Z,17.80
2023-02-23T12:10:15.253Z,18.60
2023-02-23T12:12:51.177Z,19.23
2023-02-23T12:15:26.095Z,16.70
2023-02-23T12:17:59.065Z,16.90
2023-02-23T12:20:29.176Z,20.30
2023-02-23T12:23:00.642Z,37.60
2023-02-23T12:25:32.296Z,25.60
2023-02-23T12:28:18.135Z,21.40
2023-02-23T12:30:50.698Z,19.47
2023-02-23T12:33:22.506Z,17.03
2023-02-23T12:35:55.916Z,15.53
2023-02-23T12:38:33.272Z,16.90
2023-02-23T12:41:06.570Z,15.83
2023-02-23T12:43:39.003Z,16.77
2023-02-23T12:46:10.889Z,17.07
2023-02-23T12:48:47.583Z,17.97
2023-02-23T12:51:24.046Z,16.63
2023-02-23T12:53:53.206Z,15.03
2023-02-23T12:56:42.525Z,17.07
2023-02-23T12:59:27.128Z,16.77
2023-02-23T13:01:56.016Z,15.27
2023-02-23T13:04:34.643Z,14.40
2023-02-23T13:07:09.249Z,16.10
2023-02-23T13:09:45.167Z,16.27
2023-02-23T13:12:22.104Z,15.07
2023-02-23T13:14:57.877Z,16.43
2023-02-23T13:17:36.046Z,16.30
2023-02-23T13:20:10.359Z,15.30
2023-02-23T13:22:43.543Z,13.67
2023-02-23T13:25:26.596Z,15.00
2023-02-23T13:27:57.677Z,13.60
2023-02-23T13:30:27.322Z,13.70
2023-02-23T13:32:55.744Z,12.17
2023-02-23T13:35:26.076Z,12.43
2023-02-23T13:37:56.925Z,13.33
2023-02-23T13:40:31.054Z,12.47
2023-02-23T13:43:07.654Z,12.30
2023-02-23T13:45:54.938Z,11.70
2023-02-23T13:48:33.866Z,11.10
2023-02-23T13:51:07.920Z,11.43
2023-02-23T13:53:41.874Z,9.37
2023-02-23T13:56:12.200Z,10.10
2023-02-23T13:58:47.218Z,9.20
2023-02-23T14:01:18.866Z,11.07
2023-02-23T14:03:53.507Z,18.80
2023-02-23T14:06:25.725Z,11.53
2023-02-23T14:08:57.036Z,8.90
2023-02-23T14:11:38.040Z,9.03
2023-02-23T14:14:06.330Z,8.57
2023-02-23T14:16:34.409Z,8.97
2023-02-23T14:19:13.446Z,7.90
2023-02-23T14:21:50.000Z,10.00
2023-02-23T14:24:20.475Z,9.10
2023-02-23T14:27:40.224Z,8.53
2023-02-23T14:30:25.471Z,8.70
2023-02-23T14:32:54.744Z,8.30
2023-02-23T14:35:44.246Z,9.17
2023-02-23T14:38:45.639Z,8.60
2023-02-23T14:41:15.702Z,8.63
2023-02-23T14:43:45.611Z,10.70
2023-02-23T14:46:18.226Z,9.93
2023-02-23T14:48:58.550Z,8.37
2023-02-23T14:51:42.126Z,10.87
2023-02-23T14:54:24.105Z,9.10
2023-02-23T14:56:54.167Z,9.27
2023-02-23T14:59:24.191Z,16.80
2023-02-23T15:01:53.035Z,11.77
2023-02-23T15:04:23.398Z,7.83
2023-02-23T15:06:54.591Z,8.37
2023-02-23T15:09:30.357Z,11.23
2023-02-23T15:11:59.063Z,8.00
2023-02-23T15:14:28.539Z,8.57
2023-02-23T15:16:57.238Z,9.80
2023-02-23T15:19:26.146Z,8.30
2023-02-23T15:21:55.376Z,12.33
2023-02-23T15:24:28.594Z,8.77
2023-02-23T15:26:57.620Z,10.40
2023-02-23T15:29:27.645Z,8.73
2023-02-23T15:31:58.142Z,10.30
2023-02-23T15:34:27.905Z,7.57
2023-02-23T15:36:59.187Z,7.90
2023-02-23T15:39:35.861Z,9.20
2023-02-23T15:42:05.052Z,7.40
2023-02-23T15:44:43.809Z,11.90
2023-02-23T15:47:20.744Z,9.73
2023-02-23T15:49:50.298Z,7.27
2023-02-23T15:52:22.396Z,6.53
2023-02-23T15:54:56.824Z,7.77
2023-02-23T15:57:30.616Z,5.93
2023-02-23T15:59:59.573Z,6.30
2023-02-23T16:02:27.453Z,5.13
2023-02-23T16:04:57.659Z,4.77
2023-02-23T16:07:26.917Z,4.10
2023-02-23T16:09:57.710Z,4.20
2023-02-23T16:12:32.035Z,4.47
2023-02-23T16:15:02.129Z,4.37
2023-02-23T16:17:31.718Z,3.90
2023-02-23T16:20:11.876Z,3.90
2023-02-23T16:22:40.952Z,3.37
2023-02-23T16:25:13.994Z,4.13
2023-02-23T16:27:43.464Z,3.20
2023-02-23T16:30:19.813Z,3.17
2023-02-23T16:32:47.831Z,3.30
2023-02-23T16:35:19.065Z,3.60
2023-02-23T16:38:02.695Z,2.80
2023-02-23T16:40:42.321Z,3.40
2023-02-23T16:43:11.116Z,2.87
2023-02-23T16:45:40.659Z,3.50
2023-02-23T16:48:16.157Z,2.87
2023-02-23T16:50:45.649Z,2.70
2023-02-23T16:53:14.342Z,2.67
2023-02-23T16:55:48.723Z,2.80
2023-02-23T16:58:18.532Z,2.67
2023-02-23T17:00:51.156Z,2.07
2023-02-23T17:03:21.478Z,2.30
2023-02-23T17:05:49.742Z,2.50
2023-02-23T17:08:18.097Z,2.10
2023-02-23T17:10:50.390Z,2.20
2023-02-23T17:13:20.723Z,2.43
2023-02-23T17:15:51.895Z,2.50
2023-02-23T17:18:21.721Z,2.43
2023-02-23T17:20:49.600Z,3.10
2023-02-23T17:23:17.563Z,3.97
2023-02-23T17:25:47.210Z,2.80
2023-02-23T17:28:15.805Z,2.43
2023-02-23T17:30:44.590Z,2.50
2023-02-23T17:33:12.961Z,2.53
2023-02-23T17:35:40.991Z,3.47
2023-02-23T17:38:09.388Z,3.67
2023-02-23T17:40:37.965Z,2.47
2023-02-23T17:43:08.755Z,2.50
2023-02-23T17:45:36.728Z,2.03
2023-02-23T17:48:04.709Z,3.67
2023-02-23T17:50:32.636Z,2.17
2023-02-23T17:53:00.545Z,2.30
2023-02-23T17:55:28.454Z,3.03
2023-02-23T17:57:56.420Z,3.27
2023-02-23T18:00:26.236Z,2.97
2023-02-23T18:02:54.158Z,2.40
2023-02-23T18:05:22.367Z,2.80
2023-02-23T18:07:50.317Z,2.27
2023-02-23T18:10:18.489Z,2.30
2023-02-23T18:12:46.495Z,2.40
2023-02-23T18:15:14.483Z,2.57
2023-02-23T18:17:44.380Z,1.80
2023-02-23T18:20:15.292Z,1.70
2023-02-23T18:22:43.723Z,2.33
2023-02-23T18:25:21.288Z,2.10
2023-02-23T18:27:51.648Z,2.10
2023-02-23T18:30:20.331Z,1.97
2023-02-23T18:32:49.852Z,2.30
2023-02-23T18:35:18.100Z,1.87
2023-02-23T18:37:46.059Z,2.27
2023-02-23T18:40:23.741Z,1.90
2023-02-23T18:42:51.868Z,2.13
2023-02-23T18:45:20.293Z,1.83
2023-02-23T18:47:49.618Z,1.77
2023-02-23T18:50:19.301Z,2.27
2023-02-23T18:52:48.156Z,2.27
2023-02-23T18:55:16.503Z,1.83
2023-02-23T18:57:44.669Z,1.87
2023-02-23T19:00:14.508Z,1.80
2023-02-23T19:02:42.867Z,2.33
2023-02-23T19:05:13.912Z,1.73
2023-02-23T19:07:42.294Z,1.93
2023-02-23T19:10:12.265Z,1.90
2023-02-23T19:12:40.483Z,2.50
2023-02-23T19:15:10.014Z,1.47
2023-02-23T19:17:38.110Z,1.70
2023-02-23T19:20:13.057Z,3.40
2023-02-23T19:22:42.726Z,2.87
2023-02-23T19:25:14.557Z,2.47
2023-02-23T19:27:43.201Z,2.30
2023-02-23T19:30:12.332Z,3.00
2023-02-23T19:32:43.358Z,2.00
2023-02-23T19:35:14.634Z,1.20
2023-02-23T19:37:48.580Z,1.83
2023-02-23T19:40:19.923Z,2.23
2023-02-23T19:42:48.817Z,2.13
2023-02-23T19:45:17.059Z,3.10
2023-02-23T19:47:45.432Z,4.73
2023-02-23T19:50:16.317Z,2.67
2023-02-23T19:52:46.185Z,3.10
2023-02-23T19:55:14.668Z,1.93
2023-02-23T19:57:42.975Z,3.23
2023-02-23T20:00:12.583Z,3.60
2023-02-23T20:02:43.622Z,13.07
2023-02-23T20:05:12.180Z,13.73
2023-02-23T20:07:40.304Z,3.63
2023-02-23T20:10:13.962Z,3.83
2023-02-23T20:12:42.039Z,3.83
2023-02-23T20:15:11.304Z,3.50
2023-02-23T20:17:40.246Z,2.80
2023-02-23T20:20:11.037Z,3.00
2023-02-23T20:22:41.417Z,2.87
2023-02-23T20:25:16.021Z,3.40
2023-02-23T20:27:45.189Z,2.30
2023-02-23T20:30:14.967Z,3.03
2023-02-23T20:32:43.276Z,2.37
2023-02-23T20:35:13.119Z,1.80
2023-02-23T20:37:41.291Z,1.33
2023-02-23T20:40:17.225Z,1.63
2023-02-23T20:42:48.988Z,1.70
2023-02-23T20:45:20.397Z,1.60
2023-02-23T20:47:52.032Z,1.43
2023-02-23T20:50:21.573Z,1.40
2023-02-23T20:52:49.902Z,2.07
2023-02-23T20:55:19.919Z,1.67
2023-02-23T20:57:48.883Z,1.57
2023-02-23T21:00:22.791Z,1.33
2023-02-23T21:02:55.467Z,1.37
2023-02-23T21:05:25.323Z,1.90
2023-02-23T21:07:53.601Z,1.57
2023-02-23T21:10:22.895Z,1.43
2023-02-23T21:12:50.813Z,1.67
2023-02-23T21:15:18.726Z,1.80
2023-02-23T21:17:46.656Z,1.97
2023-02-23T21:20:15.582Z,1.43
2023-02-23T21:22:43.564Z,1.30
2023-02-23T21:25:12.013Z,1.67
2023-02-23T21:27:43.085Z,1.70
2023-02-23T21:30:16.154Z,1.43
2023-02-23T21:32:44.313Z,1.47
2023-02-23T21:35:12.462Z,1.90
2023-02-23T21:37:40.870Z,1.70
2023-02-23T21:40:11.627Z,1.60
2023-02-23T21:42:41.683Z,1.00
2023-02-23T21:45:10.528Z,1.50
2023-02-23T21:47:39.508Z,1.10
2023-02-23T21:50:12.009Z,1.40
2023-02-23T21:52:39.935Z,1.17
2023-02-23T21:55:19.656Z,1.53
2023-02-23T21:57:50.591Z,2.00
2023-02-23T22:00:19.001Z,0.93
2023-02-23T22:02:49.850Z,1.90
2023-02-23T22:05:19.680Z,1.67
2023-02-23T22:07:51.210Z,1.20
2023-02-23T22:10:20.231Z,1.47
2023-02-23T22:12:50.149Z,1.23
2023-02-23T22:15:19.664Z,1.47
2023-02-23T22:17:50.517Z,1.23
2023-02-23T22:20:25.426Z,1.37
2023-02-23T22:22:53.417Z,0.97
2023-02-23T22:25:21.712Z,1.13
2023-02-23T22:27:49.654Z,1.20
2023-02-23T22:30:22.735Z,1.10
2023-02-23T22:32:51.166Z,1.03
2023-02-23T22:35:19.500Z,1.47
2023-02-23T22:37:47.691Z,1.13
2023-02-23T22:40:17.034Z,1.70
2023-02-23T22:42:48.314Z,1.10
2023-02-23T22:45:17.338Z,1.80
2023-02-23T22:47:48.798Z,1.20
2023-02-23T22:50:19.179Z,1.27
2023-02-23T22:52:47.598Z,1.57
2023-02-23T22:55:15.688Z,0.97
2023-02-23T22:57:44.003Z,1.03
2023-02-23T23:00:13.110Z,0.97
2023-02-23T23:02:41.112Z,1.30
2023-02-23T23:05:12.771Z,0.97
2023-02-23T23:07:56.162Z,0.67
2023-02-23T23:10:24.047Z,0.87
2023-02-23T23:12:52.143Z,0.70
2023-02-23T23:15:31.295Z,1.13
2023-02-23T23:17:59.219Z,0.73
2023-02-23T23:20:30.422Z,0.70
2023-02-23T23:22:58.346Z,1.17
2023-02-23T23:25:28.196Z,0.90
2023-02-23T23:27:57.888Z,0.83
2023-02-23T23:30:29.238Z,1.37
2023-02-23T23:32:57.514Z,0.80
2023-02-23T23:35:26.733Z,0.90
2023-02-23T23:37:56.837Z,0.70
2023-02-23T23:40:25.375Z,0.80
2023-02-23T23:42:55.418Z,0.77
2023-02-23T23:45:26.012Z,0.90
2023-02-23T23:47:53.946Z,0.83
2023-02-23T23:50:26.779Z,1.10
2023-02-23T23:52:57.162Z,0.70
2023-02-23T23:55:31.345Z,1.00
2023-02-23T23:58:00.218Z,1.03
